createdAt,value
2022-08-04T00:00:09.340Z,21.50
2022-08-04T00:01:22.312Z,21.58
2022-08-04T00:02:31.165Z,21.79
2022-08-04T00:03:45.721Z,21.87
2022-08-04T00:05:05.426Z,21.94
2022-08-04T00:06:14.737Z,22.04
2022-08-04T00:07:45.007Z,22.00
2022-08-04T00:08:50.260Z,21.84
2022-08-04T00:10:05.534Z,21.67
2022-08-04T00:11:15.529Z,21.75
2022-08-04T00:12:19.773Z,21.94
2022-08-04T00:13:28.166Z,21.87
2022-08-04T00:14:36.127Z,21.98
2022-08-04T00:15:38.998Z,21.96
2022-08-04T00:16:48.185Z,21.98
2022-08-04T00:17:56.654Z,21.86
2022-08-04T00:19:07.017Z,21.74
2022-08-04T00:20:14.020Z,21.91
2022-08-04T00:21:22.432Z,21.75
2022-08-04T00:22:29.349Z,21.83
2022-08-04T00:24:12.113Z,21.98
2022-08-04T00:24:43.508Z,22.00
2022-08-04T00:25:48.783Z,21.78
2022-08-04T00:28:05.979Z,21.96
2022-08-04T00:29:09.911Z,22.01
2022-08-04T00:30:16.052Z,22.04
2022-08-04T00:31:21.335Z,22.03
2022-08-04T00:32:34.662Z,22.03
2022-08-04T00:33:40.316Z,22.03
2022-08-04T00:34:47.336Z,22.01
2022-08-04T00:35:53.377Z,21.90
2022-08-04T00:36:59.659Z,22.01
2022-08-04T00:38:04.098Z,22.07
2022-08-04T00:39:17.203Z,22.00
2022-08-04T00:40:42.401Z,21.99
2022-08-04T00:42:09.090Z,21.99
2022-08-04T00:43:22.418Z,21.98
2022-08-04T00:44:38.186Z,21.85
2022-08-04T00:46:10.913Z,21.89
2022-08-04T00:48:51.512Z,21.83
2022-08-04T00:50:11.305Z,21.74
2022-08-04T00:51:33.425Z,21.88
2022-08-04T00:54:22.088Z,22.12
2022-08-04T00:55:43.991Z,22.00
2022-08-04T00:57:06.978Z,22.08
2022-08-04T00:58:24.904Z,22.13
2022-08-04T00:59:44.023Z,21.98
2022-08-04T01:01:08.235Z,21.86
2022-08-04T01:02:41.689Z,21.88
2022-08-04T01:03:58.785Z,21.80
2022-08-04T01:05:24.811Z,21.68
2022-08-04T01:07:08.532Z,21.63
2022-08-04T01:08:30.909Z,21.63
2022-08-04T01:09:40.996Z,21.71
2022-08-04T01:11:03.614Z,21.69
2022-08-04T01:12:19.767Z,21.76
2022-08-04T01:13:30.931Z,21.74
2022-08-04T01:14:49.677Z,21.74
2022-08-04T01:16:00.554Z,21.83
2022-08-04T01:17:05.941Z,21.91
2022-08-04T01:18:16.339Z,21.87
2022-08-04T01:21:04.357Z,21.91
2022-08-04T01:22:22.254Z,21.81
2022-08-04T01:23:50.016Z,21.93
2022-08-04T01:25:20.033Z,21.97
2022-08-04T01:26:42.568Z,21.71
2022-08-04T01:27:53.259Z,21.80
2022-08-04T01:29:16.246Z,21.67
2022-08-04T01:30:22.396Z,21.61
2022-08-04T01:31:38.175Z,21.65
2022-08-04T01:34:04.407Z,21.89
2022-08-04T01:35:09.311Z,21.96
2022-08-04T01:36:14.970Z,21.84
2022-08-04T01:37:38.800Z,21.77
2022-08-04T01:38:44.353Z,21.87
2022-08-04T01:39:54.783Z,21.98
2022-08-04T01:41:02.064Z,21.93
2022-08-04T01:42:09.635Z,22.09
2022-08-04T01:43:14.986Z,22.19
2022-08-04T01:44:19.993Z,22.21
2022-08-04T01:45:26.055Z,22.06
2022-08-04T01:46:34.012Z,21.98
2022-08-04T01:47:41.436Z,21.99
2022-08-04T01:48:48.509Z,21.99
2022-08-04T01:49:55.270Z,22.03
2022-08-04T01:51:01.785Z,22.08
2022-08-04T01:52:09.674Z,22.14
2022-08-04T01:53:14.147Z,22.07
2022-08-04T01:54:21.597Z,22.16
2022-08-04T01:55:52.068Z,22.20
2022-08-04T01:56:35.337Z,22.22
2022-08-04T01:57:47.936Z,22.22
2022-08-04T01:58:52.890Z,22.12
2022-08-04T02:00:01.805Z,22.06
2022-08-04T02:01:14.198Z,22.03
2022-08-04T02:02:18.499Z,21.96
2022-08-04T02:03:22.224Z,21.92
2022-08-04T02:04:26.745Z,21.88
2022-08-04T02:07:09.412Z,21.96
2022-08-04T02:08:25.579Z,21.98
2022-08-04T02:09:54.562Z,21.97
2022-08-04T02:11:16.092Z,21.94
2022-08-04T02:12:32.853Z,21.95
2022-08-04T02:13:45.065Z,22.04
2022-08-04T02:14:53.495Z,22.04
2022-08-04T02:16:22.011Z,21.96
2022-08-04T02:17:47.086Z,21.87
2022-08-04T02:19:03.458Z,21.73
2022-08-04T02:20:11.105Z,21.84
2022-08-04T02:21:17.919Z,21.81
2022-08-04T02:22:23.147Z,21.78
2022-08-04T02:23:43.866Z,21.80
2022-08-04T02:24:53.501Z,21.79
2022-08-04T02:25:59.931Z,21.84
2022-08-04T02:27:04.265Z,21.76
2022-08-04T02:28:13.679Z,21.71
2022-08-04T02:29:24.331Z,21.75
2022-08-04T02:30:47.019Z,21.74
2022-08-04T02:32:03.108Z,21.73
2022-08-04T02:33:11.777Z,21.75
2022-08-04T02:34:33.141Z,21.82
2022-08-04T02:35:38.745Z,21.93
2022-08-04T02:36:44.953Z,21.79
2022-08-04T02:37:50.985Z,21.80
2022-08-04T02:39:03.561Z,21.73
2022-08-04T02:40:10.764Z,21.71
2022-08-04T02:41:18.597Z,21.88
2022-08-04T02:42:23.312Z,21.93
2022-08-04T02:43:52.105Z,21.99
2022-08-04T02:44:40.730Z,21.85
2022-08-04T02:45:49.568Z,21.83
2022-08-04T02:46:54.568Z,21.90
2022-08-04T02:48:28.823Z,21.91
2022-08-04T02:49:14.303Z,21.98
2022-08-04T02:50:28.139Z,22.05
2022-08-04T02:51:32.750Z,22.01
2022-08-04T02:52:37.223Z,21.94
2022-08-04T02:53:42.277Z,21.99
2022-08-04T02:54:48.069Z,21.98
2022-08-04T02:55:56.482Z,22.10
2022-08-04T02:57:08.446Z,22.09
2022-08-04T02:58:12.076Z,22.07
2022-08-04T02:59:15.630Z,22.07
2022-08-04T03:00:21.586Z,22.05
2022-08-04T03:01:25.644Z,22.11
2022-08-04T03:04:41.750Z,22.30
2022-08-04T03:06:01.232Z,22.18
2022-08-04T03:07:21.325Z,22.12
2022-08-04T03:08:38.853Z,22.13
2022-08-04T03:09:54.404Z,22.23
2022-08-04T03:11:24.926Z,22.23
2022-08-04T03:12:36.983Z,22.28
2022-08-04T03:13:49.800Z,22.37
2022-08-04T03:15:00.506Z,22.17
2022-08-04T03:16:10.480Z,22.07
2022-08-04T03:17:56.600Z,22.03
2022-08-04T03:19:28.173Z,22.18
2022-08-04T03:22:07.914Z,22.24
2022-08-04T03:23:40.894Z,22.18
2022-08-04T03:26:24.239Z,22.38
2022-08-04T03:27:49.621Z,22.10
2022-08-04T03:29:36.752Z,22.17
2022-08-04T03:30:46.195Z,22.23
2022-08-04T03:32:20.471Z,22.24
2022-08-04T03:33:58.724Z,22.27
2022-08-04T03:35:24.009Z,22.16
2022-08-04T03:36:34.139Z,22.13
2022-08-04T03:38:16.987Z,22.08
2022-08-04T03:39:23.113Z,22.12
2022-08-04T03:40:45.316Z,22.09
2022-08-04T03:42:04.704Z,22.19
2022-08-04T03:43:59.007Z,22.02
2022-08-04T03:45:20.549Z,22.07
2022-08-04T03:46:33.202Z,22.05
2022-08-04T03:48:05.283Z,22.09
2022-08-04T03:49:33.018Z,22.20
2022-08-04T03:51:34.841Z,22.33
2022-08-04T03:52:56.697Z,22.26
2022-08-04T03:56:12.399Z,22.69
2022-08-04T03:57:35.821Z,22.46
2022-08-04T03:59:00.835Z,22.59
2022-08-04T04:00:19.520Z,22.77
2022-08-04T04:01:28.006Z,22.92
2022-08-04T04:03:06.119Z,22.76
2022-08-04T04:04:30.848Z,22.77
2022-08-04T04:06:02.333Z,22.76
2022-08-04T04:07:15.160Z,22.75
2022-08-04T04:08:42.201Z,22.83
2022-08-04T04:10:16.324Z,22.95
2022-08-04T04:11:54.196Z,23.05
2022-08-04T04:13:06.883Z,23.26
2022-08-04T04:14:14.171Z,23.14
2022-08-04T04:15:47.026Z,23.10
2022-08-04T04:17:04.108Z,22.96
2022-08-04T04:18:23.627Z,22.67
2022-08-04T04:19:33.788Z,22.65
2022-08-04T04:22:22.178Z,22.85
2022-08-04T04:23:40.980Z,22.83
2022-08-04T04:25:04.853Z,22.62
2022-08-04T04:26:27.790Z,22.55
2022-08-04T04:28:44.711Z,22.65
2022-08-04T04:29:33.074Z,22.61
2022-08-04T04:30:46.193Z,22.52
2022-08-04T04:31:59.554Z,22.77
2022-08-04T04:33:34.132Z,22.89
2022-08-04T04:34:47.509Z,23.08
2022-08-04T04:36:10.355Z,22.81
2022-08-04T04:37:37.305Z,22.79
2022-08-04T04:39:03.761Z,22.89
2022-08-04T04:40:21.532Z,22.85
2022-08-04T04:43:14.606Z,22.60
2022-08-04T04:46:00.783Z,22.88
2022-08-04T04:48:07.050Z,22.59
2022-08-04T04:48:59.305Z,22.53
2022-08-04T04:50:16.854Z,22.59
2022-08-04T04:51:36.235Z,22.69
2022-08-04T04:52:43.653Z,22.71
2022-08-04T04:54:15.262Z,22.62
2022-08-04T04:55:23.728Z,22.69
2022-08-04T04:56:37.152Z,22.47
2022-08-04T04:57:53.168Z,22.34
2022-08-04T04:58:51.640Z,22.46
2022-08-04T05:00:06.087Z,22.50
2022-08-04T05:01:22.734Z,22.60
2022-08-04T05:03:08.949Z,22.71
2022-08-04T05:04:47.392Z,22.76
2022-08-04T05:06:07.495Z,22.72
2022-08-04T05:07:22.593Z,22.61
2022-08-04T05:08:45.289Z,22.89
2022-08-04T05:09:52.675Z,23.06
2022-08-04T05:11:28.139Z,23.03
2022-08-04T05:14:35.737Z,23.06
2022-08-04T05:15:33.033Z,23.02
2022-08-04T05:16:45.339Z,23.13
2022-08-04T05:17:53.071Z,23.23
2022-08-04T05:20:37.077Z,23.35
2022-08-04T05:21:49.420Z,23.40
2022-08-04T05:22:59.968Z,23.52
2022-08-04T05:24:07.270Z,23.43
2022-08-04T05:25:29.220Z,23.11
2022-08-04T05:26:36.529Z,22.99
2022-08-04T05:27:43.859Z,22.83
2022-08-04T05:28:55.652Z,22.94
2022-08-04T05:30:05.645Z,23.08
2022-08-04T05:31:18.642Z,23.09
2022-08-04T05:32:27.140Z,23.18
2022-08-04T05:33:36.688Z,23.06
2022-08-04T05:34:43.223Z,23.32
2022-08-04T05:36:17.776Z,23.21
2022-08-04T05:37:04.063Z,23.17
2022-08-04T05:38:08.777Z,23.20
2022-08-04T05:39:17.325Z,23.00
2022-08-04T05:40:23.553Z,22.92
2022-08-04T05:41:32.353Z,23.17
2022-08-04T05:42:40.124Z,23.18
2022-08-04T05:43:47.757Z,23.19
2022-08-04T05:44:59.571Z,23.09
2022-08-04T05:46:09.280Z,23.20
2022-08-04T05:47:14.063Z,23.21
2022-08-04T05:48:18.865Z,22.93
2022-08-04T05:49:27.548Z,22.97
2022-08-04T05:50:40.760Z,23.15
2022-08-04T05:51:47.352Z,23.12
2022-08-04T05:52:52.204Z,23.06
2022-08-04T05:53:58.907Z,22.88
2022-08-04T05:55:04.920Z,22.86
2022-08-04T05:56:11.327Z,22.98
2022-08-04T05:57:16.982Z,23.09
2022-08-04T05:58:23.876Z,23.09
2022-08-04T05:59:33.052Z,23.06
2022-08-04T06:00:41.270Z,23.33
2022-08-04T06:01:55.118Z,23.54
2022-08-04T06:02:52.370Z,23.73
2022-08-04T06:03:58.414Z,23.83
2022-08-04T06:05:03.269Z,23.63
2022-08-04T06:06:12.075Z,23.61
2022-08-04T06:07:16.415Z,23.69
2022-08-04T06:08:21.388Z,23.87
2022-08-04T06:09:27.533Z,23.83
2022-08-04T06:10:34.141Z,23.86
2022-08-04T06:12:00.438Z,23.90
2022-08-04T06:14:14.317Z,24.22
2022-08-04T06:15:25.242Z,24.23
2022-08-04T06:16:35.110Z,24.45
2022-08-04T06:18:34.077Z,24.51
2022-08-04T06:20:01.126Z,24.50
2022-08-04T06:20:18.934Z,24.29
2022-08-04T06:21:17.182Z,24.10
2022-08-04T06:22:23.843Z,24.08
2022-08-04T06:23:30.761Z,24.08
2022-08-04T06:24:40.030Z,24.43
2022-08-04T06:25:53.449Z,24.89
2022-08-04T06:26:59.777Z,25.58
2022-08-04T06:28:09.020Z,25.78
2022-08-04T06:29:20.132Z,25.67
2022-08-04T06:30:26.771Z,26.03
2022-08-04T06:32:27.915Z,26.00
2022-08-04T06:32:50.178Z,25.89
2022-08-04T06:33:54.566Z,25.68
2022-08-04T06:35:04.929Z,25.69
2022-08-04T06:36:12.726Z,25.44
2022-08-04T06:37:43.178Z,25.18
2022-08-04T06:38:27.759Z,25.01
2022-08-04T06:39:34.818Z,25.13
2022-08-04T06:40:41.758Z,25.00
2022-08-04T06:42:16.988Z,25.10
2022-08-04T06:42:54.377Z,25.38
2022-08-04T06:44:10.013Z,25.63
2022-08-04T06:45:16.232Z,25.69
2022-08-04T06:46:21.661Z,25.36
2022-08-04T06:47:26.420Z,25.33
2022-08-04T06:48:33.780Z,25.08
2022-08-04T06:49:43.903Z,24.81
2022-08-04T06:51:26.689Z,24.77
2022-08-04T06:52:05.496Z,24.80
2022-08-04T06:53:10.000Z,24.80
2022-08-04T06:54:13.715Z,25.01
2022-08-04T06:55:21.331Z,25.18
2022-08-04T06:57:41.917Z,25.45
2022-08-04T06:58:48.867Z,25.63
2022-08-04T06:59:58.787Z,25.95
2022-08-04T07:01:03.656Z,26.18
2022-08-04T07:02:11.389Z,26.36
2022-08-04T07:03:17.443Z,26.07
2022-08-04T07:04:22.960Z,25.87
2022-08-04T07:05:29.759Z,25.83
2022-08-04T07:06:33.988Z,25.58
2022-08-04T07:07:56.937Z,25.77
2022-08-04T07:08:48.288Z,25.44
2022-08-04T07:09:54.675Z,25.31
2022-08-04T07:11:05.882Z,25.15
2022-08-04T07:12:12.909Z,25.21
2022-08-04T07:13:17.820Z,25.03
2022-08-04T07:14:22.639Z,25.01
2022-08-04T07:15:28.146Z,25.03
2022-08-04T07:16:34.045Z,25.17
2022-08-04T07:17:39.675Z,25.01
2022-08-04T07:18:46.615Z,24.82
2022-08-04T07:19:50.368Z,24.94
2022-08-04T07:20:54.290Z,25.16
2022-08-04T07:22:18.007Z,25.21
2022-08-04T07:23:12.188Z,25.40
2022-08-04T07:24:17.240Z,25.39
2022-08-04T07:25:24.393Z,25.58
2022-08-04T07:26:30.352Z,25.94
2022-08-04T07:27:47.910Z,26.26
2022-08-04T07:28:41.209Z,26.52
2022-08-04T07:29:45.430Z,26.68
2022-08-04T07:30:53.379Z,26.54
2022-08-04T07:31:59.263Z,26.45
2022-08-04T07:33:04.070Z,26.31
2022-08-04T07:34:20.812Z,26.50
2022-08-04T07:36:10.211Z,26.17
2022-08-04T07:36:31.255Z,26.00
2022-08-04T07:37:39.974Z,25.80
2022-08-04T07:38:50.834Z,26.03
2022-08-04T07:39:59.018Z,25.93
2022-08-04T07:41:35.284Z,25.94
2022-08-04T07:42:12.534Z,26.03
2022-08-04T07:43:18.128Z,25.87
2022-08-04T07:44:21.725Z,25.77
2022-08-04T07:45:29.580Z,25.88
2022-08-04T07:46:33.364Z,26.02
2022-08-04T07:47:41.413Z,26.12
2022-08-04T07:48:47.072Z,25.62
2022-08-04T07:49:55.589Z,25.54
2022-08-04T07:50:58.401Z,25.42
2022-08-04T07:52:02.975Z,25.47
2022-08-04T07:53:53.900Z,25.28
2022-08-04T07:54:15.449Z,25.24
2022-08-04T07:55:21.992Z,25.29
2022-08-04T07:56:29.186Z,25.46
2022-08-04T07:57:41.398Z,25.81
2022-08-04T07:58:38.348Z,26.19
2022-08-04T07:59:48.233Z,26.45
2022-08-04T08:00:49.881Z,26.72
2022-08-04T08:27:56.012Z,26.66
2022-08-04T08:30:12.181Z,26.42
2022-08-04T08:31:55.593Z,26.25
2022-08-04T08:32:30.905Z,26.24
2022-08-04T08:33:35.170Z,26.50
2022-08-04T08:34:42.873Z,26.63
2022-08-04T08:37:34.053Z,26.76
2022-08-04T08:39:05.009Z,26.47
2022-08-04T08:40:40.629Z,26.68
2022-08-04T08:41:51.980Z,26.81
2022-08-04T08:44:06.149Z,27.35
2022-08-04T08:44:58.086Z,27.69
2022-08-04T08:46:48.065Z,27.46
2022-08-04T08:48:04.831Z,27.47
2022-08-04T08:50:02.373Z,27.30
2022-08-04T08:50:46.404Z,27.17
2022-08-04T08:52:17.436Z,27.48
2022-08-04T08:53:48.827Z,28.33
2022-08-04T08:54:59.036Z,28.84
2022-08-04T08:56:13.764Z,28.30
2022-08-04T08:57:30.953Z,28.30
2022-08-04T08:58:56.262Z,29.45
2022-08-04T09:00:10.853Z,30.44
2022-08-04T09:01:28.774Z,30.44
2022-08-04T09:04:31.978Z,32.01
2022-08-04T09:05:41.345Z,32.29
2022-08-04T09:07:02.384Z,32.65
2022-08-04T09:09:40.389Z,31.28
2022-08-04T09:10:55.976Z,30.76
2022-08-04T09:12:20.035Z,30.88
2022-08-04T09:13:28.824Z,30.81
2022-08-04T09:14:48.167Z,29.99
2022-08-04T09:16:22.833Z,29.51
2022-08-04T09:19:38.909Z,28.91
2022-08-04T09:20:34.287Z,28.41
2022-08-04T09:21:51.559Z,28.63
2022-08-04T09:23:00.160Z,28.65
2022-08-04T09:24:35.208Z,29.29
2022-08-04T09:25:56.049Z,30.03
2022-08-04T09:27:04.732Z,31.47
2022-08-04T09:28:43.517Z,31.78
2022-08-04T09:29:45.002Z,31.58
2022-08-04T09:32:38.071Z,31.73
2022-08-04T09:34:04.869Z,31.39
2022-08-04T09:35:41.238Z,31.28
2022-08-04T09:37:16.845Z,31.05
2022-08-04T09:38:50.244Z,31.64
2022-08-04T09:39:58.638Z,31.62
2022-08-04T09:41:20.899Z,31.06
2022-08-04T09:42:38.559Z,31.41
2022-08-04T09:44:49.904Z,31.75
2022-08-04T09:45:45.128Z,30.89
2022-08-04T09:47:26.015Z,30.60
2022-08-04T09:48:38.173Z,31.64
2022-08-04T09:50:04.926Z,32.02
2022-08-04T09:52:35.713Z,31.65
2022-08-04T09:54:08.648Z,31.35
2022-08-04T09:55:19.893Z,31.44
2022-08-04T09:56:37.377Z,31.56
2022-08-04T09:58:10.126Z,31.41
2022-08-04T09:59:19.933Z,31.10
2022-08-04T10:00:40.519Z,30.89
2022-08-04T10:01:37.123Z,30.77
2022-08-04T10:02:43.785Z,30.50
2022-08-04T10:03:54.621Z,30.60
2022-08-04T10:05:02.803Z,30.46
2022-08-04T10:06:34.786Z,30.38
2022-08-04T10:08:18.346Z,30.20
2022-08-04T10:09:42.303Z,30.21
2022-08-04T10:11:00.893Z,31.02
2022-08-04T10:12:47.082Z,31.24
2022-08-04T10:14:08.756Z,30.86
2022-08-04T10:15:24.559Z,30.93
2022-08-04T10:16:44.978Z,31.11
2022-08-04T10:17:56.389Z,31.19
2022-08-04T10:19:33.249Z,31.54
2022-08-04T10:20:55.674Z,31.89
2022-08-04T10:22:29.253Z,32.21
2022-08-04T10:23:55.111Z,32.59
2022-08-04T10:24:53.702Z,32.33
2022-08-04T10:26:27.317Z,32.14
2022-08-04T10:27:40.096Z,32.62
2022-08-04T10:29:00.046Z,32.51
2022-08-04T10:30:14.275Z,32.48
2022-08-04T10:31:27.674Z,31.97
2022-08-04T10:32:42.752Z,32.03
2022-08-04T10:33:55.404Z,32.17
2022-08-04T10:35:13.597Z,32.23
2022-08-04T10:36:23.733Z,32.52
2022-08-04T10:37:59.875Z,32.08
2022-08-04T10:38:58.922Z,31.88
2022-08-04T10:40:45.706Z,31.64
2022-08-04T10:42:12.448Z,31.23
2022-08-04T10:43:41.917Z,30.87
2022-08-04T10:45:21.281Z,30.44
2022-08-04T10:46:30.853Z,30.42
2022-08-04T10:47:41.029Z,30.02
2022-08-04T10:48:47.251Z,30.08
2022-08-04T10:50:01.533Z,29.99
2022-08-04T10:51:08.702Z,30.01
2022-08-04T10:52:19.946Z,30.03
2022-08-04T10:53:25.301Z,30.18
2022-08-04T10:54:49.323Z,30.51
2022-08-04T10:55:59.516Z,30.75
2022-08-04T10:57:18.696Z,31.30
2022-08-04T10:58:46.893Z,31.42
2022-08-04T11:00:03.191Z,31.44
2022-08-04T11:01:07.312Z,31.75
2022-08-04T11:02:40.491Z,31.76
2022-08-04T11:04:04.354Z,31.84
2022-08-04T11:05:31.991Z,31.64
2022-08-04T11:06:37.158Z,31.89
2022-08-04T11:07:44.705Z,31.58
2022-08-04T11:08:54.637Z,31.10
2022-08-04T11:10:00.694Z,30.98
2022-08-04T11:12:00.673Z,31.08
2022-08-04T11:13:01.869Z,30.78
2022-08-04T11:14:13.047Z,30.55
2022-08-04T11:15:35.929Z,31.28
2022-08-04T11:16:49.301Z,31.47
2022-08-04T11:18:01.795Z,31.77
2022-08-04T11:19:44.880Z,31.27
2022-08-04T11:20:39.719Z,31.83
2022-08-04T11:23:12.517Z,31.94
2022-08-04T11:24:22.608Z,31.28
2022-08-04T11:25:36.928Z,31.60
2022-08-04T11:26:56.540Z,32.02
2022-08-04T11:28:21.925Z,32.15
2022-08-04T11:29:58.480Z,31.98
2022-08-04T11:31:26.917Z,32.53
2022-08-04T11:32:37.209Z,32.46
2022-08-04T11:33:52.164Z,31.90
2022-08-04T11:35:01.141Z,31.76
2022-08-04T11:36:30.023Z,31.43
2022-08-04T11:37:49.485Z,31.47
2022-08-04T11:39:02.501Z,31.36
2022-08-04T11:40:13.200Z,31.30
2022-08-04T11:41:22.235Z,30.81
2022-08-04T11:42:36.969Z,30.65
2022-08-04T11:44:00.645Z,30.67
2022-08-04T11:45:13.801Z,30.54
2022-08-04T11:46:23.388Z,30.46
2022-08-04T11:47:33.595Z,30.40
2022-08-04T11:48:40.711Z,30.27
2022-08-04T11:49:57.310Z,30.03
2022-08-04T11:50:56.636Z,30.01
2022-08-04T11:52:02.962Z,30.17
2022-08-04T11:53:11.726Z,30.65
2022-08-04T11:54:16.341Z,31.22
2022-08-04T11:55:23.027Z,31.42
2022-08-04T11:56:36.743Z,31.53
2022-08-04T11:57:35.600Z,31.84
2022-08-04T11:58:50.139Z,32.09
2022-08-04T11:59:57.390Z,31.76
2022-08-04T12:01:25.103Z,32.10
2022-08-04T12:02:49.986Z,32.42
2022-08-04T12:04:04.795Z,32.34
2022-08-04T12:05:23.255Z,32.45
2022-08-04T12:06:36.880Z,32.00
2022-08-04T12:08:01.558Z,31.28
2022-08-04T12:09:10.324Z,31.52
2022-08-04T12:10:42.895Z,31.31
2022-08-04T12:12:09.877Z,31.34
2022-08-04T12:18:48.353Z,28.48
2022-08-04T12:20:04.232Z,27.45
2022-08-04T12:21:10.660Z,26.91
2022-08-04T12:22:21.329Z,26.63
2022-08-04T12:23:29.309Z,26.71
2022-08-04T12:24:47.568Z,26.79
2022-08-04T12:25:55.706Z,26.96
2022-08-04T12:27:17.524Z,27.35
2022-08-04T12:28:46.309Z,27.44
2022-08-04T12:29:37.488Z,27.46
2022-08-04T12:31:01.618Z,27.44
2022-08-04T12:32:01.894Z,27.68
2022-08-04T12:33:18.110Z,27.53
2022-08-04T12:34:45.719Z,27.70
2022-08-04T12:36:10.935Z,27.82
2022-08-04T12:37:14.160Z,27.69
2022-08-04T12:38:23.057Z,27.57
2022-08-04T12:39:27.215Z,27.39
2022-08-04T12:40:51.949Z,27.57
2022-08-04T12:42:07.755Z,27.81
2022-08-04T12:43:31.691Z,28.18
2022-08-04T12:44:40.764Z,28.24
2022-08-04T12:45:57.532Z,28.37
2022-08-04T12:47:26.518Z,28.08
2022-08-04T12:48:20.595Z,27.98
2022-08-04T12:49:25.567Z,27.76
2022-08-04T12:50:31.629Z,27.75
2022-08-04T12:52:07.835Z,27.63
2022-08-04T12:53:01.578Z,27.47
2022-08-04T12:53:58.688Z,27.52
2022-08-04T12:55:05.580Z,27.62
2022-08-04T12:56:11.959Z,27.54
2022-08-04T12:57:18.083Z,27.39
2022-08-04T12:58:43.827Z,27.10
2022-08-04T12:59:45.573Z,26.75
2022-08-04T13:02:09.176Z,26.74
2022-08-04T13:02:19.658Z,26.88
2022-08-04T13:03:26.403Z,26.67
2022-08-04T13:04:32.668Z,26.84
2022-08-04T13:05:40.336Z,26.90
2022-08-04T13:06:46.108Z,26.69
2022-08-04T13:07:52.400Z,26.63
2022-08-04T13:09:01.029Z,26.60
2022-08-04T13:10:18.304Z,26.66
2022-08-04T13:11:26.247Z,26.63
2022-08-04T13:12:32.862Z,26.84
2022-08-04T13:13:38.780Z,26.94
2022-08-04T13:14:46.239Z,27.03
2022-08-04T13:16:01.829Z,26.92
2022-08-04T13:17:08.705Z,26.95
2022-08-04T13:18:15.030Z,27.03
2022-08-04T13:19:19.569Z,27.16
2022-08-04T13:20:36.654Z,27.09
2022-08-04T13:22:01.798Z,27.01
2022-08-04T13:23:09.254Z,27.05
2022-08-04T13:24:22.032Z,27.17
2022-08-04T13:26:43.169Z,27.15
2022-08-04T13:26:44.160Z,27.24
2022-08-04T13:27:43.436Z,27.08
2022-08-04T13:28:48.924Z,27.20
2022-08-04T13:29:59.371Z,27.48
2022-08-04T13:31:04.542Z,27.52
2022-08-04T13:32:09.682Z,27.57
2022-08-04T13:33:13.109Z,27.44
2022-08-04T13:34:19.731Z,27.37
2022-08-04T13:35:55.303Z,27.39
2022-08-04T13:36:32.508Z,27.50
2022-08-04T13:37:41.669Z,27.56
2022-08-04T13:38:50.509Z,27.71
2022-08-04T13:39:56.491Z,27.76
2022-08-04T13:41:05.876Z,28.16
2022-08-04T13:42:14.071Z,28.40
2022-08-04T13:44:16.605Z,28.64
2022-08-04T13:44:40.867Z,28.70
2022-08-04T13:45:45.807Z,28.55
2022-08-04T13:47:17.496Z,28.62
2022-08-04T13:48:32.828Z,28.44
2022-08-04T13:49:37.987Z,28.47
2022-08-04T13:50:33.518Z,28.33
2022-08-04T13:51:58.093Z,28.28
2022-08-04T13:52:53.425Z,28.51
2022-08-04T13:54:02.377Z,28.38
2022-08-04T13:55:07.620Z,28.40
2022-08-04T13:56:15.214Z,28.58
2022-08-04T13:57:26.327Z,28.76
2022-08-04T13:58:39.033Z,28.87
2022-08-04T13:59:42.688Z,28.57
2022-08-04T14:01:04.598Z,28.23
2022-08-04T14:02:12.952Z,28.26
2022-08-04T14:03:54.333Z,28.30
2022-08-04T14:04:50.595Z,28.47
2022-08-04T14:06:17.322Z,28.32
2022-08-04T14:07:23.071Z,28.39
2022-08-04T14:08:31.557Z,28.30
2022-08-04T14:09:39.644Z,27.95
2022-08-04T14:10:43.360Z,27.87
2022-08-04T14:12:06.102Z,27.76
2022-08-04T14:13:04.344Z,27.57
2022-08-04T14:14:31.061Z,27.51
2022-08-04T14:16:01.486Z,27.14
2022-08-04T14:18:22.022Z,26.54
2022-08-04T14:19:36.191Z,26.53
2022-08-04T14:20:37.945Z,26.50
2022-08-04T14:21:44.099Z,26.36
2022-08-04T14:22:47.883Z,26.12
2022-08-04T14:23:56.855Z,25.96
2022-08-04T14:26:34.154Z,25.99
2022-08-04T14:27:51.669Z,25.89
2022-08-04T14:29:27.455Z,25.81
2022-08-04T14:30:07.867Z,25.90
2022-08-04T14:31:17.116Z,25.98
2022-08-04T14:32:26.306Z,26.10
2022-08-04T14:34:01.759Z,25.95
2022-08-04T14:34:45.695Z,25.88
2022-08-04T14:36:04.541Z,25.82
2022-08-04T14:37:18.361Z,25.68
2022-08-04T14:38:15.756Z,25.62
2022-08-04T14:39:22.686Z,25.47
2022-08-04T14:40:32.152Z,25.42
2022-08-04T14:41:53.732Z,25.54
2022-08-04T14:42:58.690Z,25.56
2022-08-04T14:44:04.348Z,25.53
2022-08-04T14:45:10.120Z,25.53
2022-08-04T14:46:15.385Z,25.54
2022-08-04T14:47:19.244Z,25.39
2022-08-04T14:48:23.324Z,25.30
2022-08-04T14:49:28.459Z,25.46
2022-08-04T14:50:38.989Z,25.22
2022-08-04T14:51:48.808Z,25.22
2022-08-04T14:52:55.827Z,25.26
2022-08-04T14:53:59.394Z,25.28
2022-08-04T14:55:23.718Z,25.28
2022-08-04T14:56:46.114Z,25.42
2022-08-04T14:58:34.129Z,25.66
2022-08-04T14:58:41.585Z,25.66
2022-08-04T15:00:00.763Z,25.59
2022-08-04T15:00:59.731Z,25.55
2022-08-04T15:02:08.171Z,25.73
2022-08-04T15:03:13.181Z,25.69
2022-08-04T15:04:16.257Z,25.73
2022-08-04T15:06:02.992Z,25.67
2022-08-04T15:06:32.251Z,25.59
2022-08-04T15:07:37.228Z,25.61
2022-08-04T15:08:44.373Z,25.49
2022-08-04T15:09:46.331Z,25.58
2022-08-04T15:10:50.563Z,25.64
2022-08-04T15:11:54.861Z,25.66
2022-08-04T15:13:00.293Z,25.73
2022-08-04T15:14:05.085Z,25.91
2022-08-04T15:15:35.465Z,25.87
2022-08-04T15:16:15.862Z,25.71
2022-08-04T15:17:29.402Z,25.75
2022-08-04T15:18:28.511Z,25.67
2022-08-04T15:19:31.872Z,25.81
2022-08-04T15:20:40.436Z,25.84
2022-08-04T15:21:44.517Z,25.68
2022-08-04T15:22:49.670Z,25.77
2022-08-04T15:25:07.357Z,25.89
2022-08-04T15:26:34.667Z,25.89
2022-08-04T15:27:43.563Z,26.12
2022-08-04T15:28:53.824Z,26.06
2022-08-04T15:30:09.828Z,26.04
2022-08-04T15:32:05.773Z,26.10
2022-08-04T15:32:25.007Z,26.05
2022-08-04T15:33:34.181Z,26.13
2022-08-04T15:34:51.405Z,26.16
2022-08-04T15:36:14.293Z,26.16
2022-08-04T15:37:33.228Z,26.04
2022-08-04T15:38:53.052Z,26.09
2022-08-04T15:40:04.263Z,26.16
2022-08-04T15:41:10.099Z,26.18
2022-08-04T15:42:35.119Z,26.15
2022-08-04T15:43:59.689Z,26.11
2022-08-04T15:45:20.148Z,25.85
2022-08-04T15:46:44.918Z,25.78
2022-08-04T15:48:09.377Z,26.04
2022-08-04T15:50:39.612Z,26.60
2022-08-04T15:51:44.452Z,26.25
2022-08-04T15:53:00.938Z,26.31
2022-08-04T15:54:27.893Z,26.40
2022-08-04T15:55:45.476Z,26.30
2022-08-04T15:57:01.612Z,26.25
2022-08-04T15:58:01.541Z,26.18
2022-08-04T15:59:06.026Z,26.22
2022-08-04T16:00:15.051Z,26.07
2022-08-04T16:01:19.847Z,26.04
2022-08-04T16:02:42.638Z,26.09
2022-08-04T16:03:58.718Z,26.17
2022-08-04T16:05:19.058Z,26.23
2022-08-04T16:06:34.115Z,26.18
2022-08-04T16:09:12.042Z,26.38
2022-08-04T16:10:34.789Z,26.31
2022-08-04T16:11:41.153Z,26.31
2022-08-04T16:12:57.219Z,26.14
2022-08-04T16:14:06.399Z,26.24
2022-08-04T16:15:48.108Z,26.15
2022-08-04T16:16:54.763Z,26.26
2022-08-04T16:17:58.269Z,26.02
2022-08-04T16:19:11.476Z,26.03
2022-08-04T16:20:16.611Z,25.80
2022-08-04T16:21:27.483Z,25.69
2022-08-04T16:22:39.769Z,25.46
2022-08-04T16:24:02.062Z,25.36
2022-08-04T16:25:03.110Z,25.50
2022-08-04T16:26:05.996Z,25.47
2022-08-04T16:27:12.189Z,25.48
2022-08-04T16:28:40.721Z,25.49
2022-08-04T16:29:46.909Z,25.48
2022-08-04T16:30:50.444Z,25.38
2022-08-04T16:32:12.047Z,25.33
2022-08-04T16:33:21.779Z,25.35
2022-08-04T16:34:48.426Z,25.43
2022-08-04T16:35:41.914Z,25.32
2022-08-04T16:38:14.736Z,25.24
2022-08-04T16:39:21.387Z,25.08
2022-08-04T16:40:35.833Z,24.94
2022-08-04T16:41:42.579Z,24.88
2022-08-04T16:42:46.977Z,24.98
2022-08-04T16:43:50.359Z,24.97
2022-08-04T16:45:04.578Z,24.95
2022-08-04T16:46:18.374Z,24.93
2022-08-04T16:47:22.597Z,24.77
2022-08-04T16:48:27.258Z,24.68
2022-08-04T16:49:34.859Z,24.70
2022-08-04T16:50:53.638Z,24.71
2022-08-04T16:52:05.383Z,24.67
2022-08-04T16:53:14.543Z,24.66
2022-08-04T16:54:21.830Z,24.74
2022-08-04T16:55:27.322Z,24.81
2022-08-04T16:56:33.375Z,24.68
2022-08-04T16:57:40.217Z,24.58
2022-08-04T16:58:53.677Z,24.67
2022-08-04T16:59:55.895Z,24.63
2022-08-04T17:01:12.185Z,24.69